Etusivu
METAR-TAF:

METAR-TAF

Lentoasemat :

Balmaceda, Chile

Leveyspiiri: 45-55S, Pituuspiiri: 071-41W, korkeus merenpinnasta: 520 m

Tämänhetkinen sää

Tämä raportti tehtiin 9 tuntia ja 36 minuuttia sitten, kello 23.00 UTC
Tuuli 25 kn lännestä/luoteesta
Lämpötila 10°C
Kosteus 66%
Ilmanpaine 1011 hPa
Näkyvyys 10 km tai enemmän

METAR: SCBA 162300Z AUTO 30025KT 9999 NCD 10/04 Q1011

Aika: 04:36 (08:36 UTC)

Sääennuste

Tämä raportti tehtiin 4 tuntia ja 31 minuuttia sitten, kello 04.05 UTC
Ennuste voimassa 17. päivästä klo 06 UTC - 18. päivään klo 06 UTC
Tuuli 15 kn lännestä/luoteesta
Näkyvyys 10 km tai enemmän
ei pilviä alle 1500 m:ssä eikä cumulonimbus-pilviä
Ajoittain
17. päivästä klo 08 UTC - 17. päivään klo 13 UTC
Hajonneita pilviä 3000 ft:n korkeudessa
Tulossa
18. päivästä klo 02 UTC - 18. päivään klo 04 UTC
Tuuli 5 kn lännestä/luoteesta

TAF: SCBA 170405Z 1706/1806 30015KT CAVOK TN06/1711Z TX14/1719Z TEMPO 1708/1713 BKN030 BECMG 1802/1804 30005KT

Säähavainnot ja -ennusteet yli 4000 lentoasemalta (METAR- ja TAF-raportit).

Käytössä olevat sääasemat on merkitty karttaan keltaisilla ja punaisilla pisteillä.

Aseta hiiri pisteen päälle nähdäksesi sääaseman nimen.

Klikkaa sitten nähdäksesi säähavainnot ja -ennusteet.

Kartan vaihtaminen: klikkaa mustalla rastilla varustettuja vihreitä pisteitä, niin voit zoomata sisään; viivalla varustettua vihreää pistettä, niin voit zoomata ulos tai vihreitä nuolia, niin pääset viereisille kartoille.


METAR-TAF: